< Typhoon 196703 1967 Season Typhoon 196705 >
Typhoon 196704 (VIOLET)
General InformationTrack Information on Google Maps || Disaster Info.ResourceGoogle EarthGE AnimationAtom FeedGeoJSON
Detalied Best Track (Time Zone = UTC)
Year Month Day Hour Lat. Long. Pressure (hPa) Wind (kt) Class Image Chart
1967 3 31 18 4.0 150.5 1000 0 2 -- Chart
1967 4 1 00 4.6 150.1 1002 0 2 -- Chart
1967 4 1 06 5.1 148.9 1000 0 2 -- Chart
1967 4 1 12 5.6 147.9 998 0 2 -- Chart
1967 4 1 18 6.1 146.9 998 0 2 -- Chart
1967 4 2 00 6.2 145.6 995 0 9 -- Chart
1967 4 2 06 6.6 144.6 992 0 9 -- Chart
1967 4 2 12 7.5 143.5 992 0 9 -- Chart
1967 4 2 18 8.2 142.4 992 0 9 -- Chart
1967 4 3 00 8.9 140.9 988 0 9 -- Chart
1967 4 3 06 9.8 140.0 984 0 9 -- Chart
1967 4 3 12 10.5 138.5 980 0 9 -- Chart
1967 4 3 18 11.1 137.1 976 0 9 -- Chart
1967 4 4 00 11.9 136.2 978 0 9 -- Chart
1967 4 4 06 12.3 135.3 972 0 9 -- Chart
1967 4 4 12 12.5 134.5 968 0 9 -- Chart
1967 4 4 18 13.0 133.6 968 0 9 -- Chart
1967 4 5 00 13.1 133.2 956 0 9 -- Chart
1967 4 5 06 13.2 132.8 946 0 9 -- Chart
1967 4 5 12 13.4 132.3 936 0 9 -- Chart
1967 4 5 18 13.6 131.5 935 0 9 -- Chart
1967 4 6 00 13.8 130.6 932 0 9 -- Chart
1967 4 6 06 14.3 129.8 930 0 9 -- Chart
1967 4 6 12 14.8 129.0 935 0 9 -- Chart
1967 4 6 18 15.1 128.2 942 0 9 -- Chart
1967 4 7 00 15.6 127.2 944 0 9 -- Chart
1967 4 7 06 16.0 126.3 948 0 9 -- Chart
1967 4 7 12 16.3 125.2 950 0 9 -- Chart
1967 4 7 18 17.0 124.0 955 0 9 -- Chart
1967 4 8 00 17.3 122.8 960 0 9 -- Chart
1967 4 8 06 17.6 121.6 976 0 9 -- Chart
1967 4 8 12 18.1 120.5 988 0 9 -- Chart
1967 4 8 18 18.8 119.3 992 0 9 -- Chart
1967 4 9 00 19.2 118.9 992 0 9 -- Chart
1967 4 9 06 19.8 118.1 992 0 9 -- Chart
1967 4 9 12 20.2 117.8 993 0 9 -- Chart
1967 4 9 18 20.5 117.7 994 0 9 -- Chart
1967 4 10 00 20.9 117.8 994 0 9 -- Chart
1967 4 10 06 21.2 118.1 995 0 9 -- Chart
1967 4 10 12 21.5 118.7 996 0 9 -- Chart
1967 4 10 18 21.8 119.6 998 0 9 -- Chart
1967 4 11 00 21.8 120.6 1000 0 9 -- Chart
1967 4 11 06 21.8 121.2 1004 0 9 -- Chart
1967 4 11 12 21.8 121.9 1006 0 9 -- Chart
1967 4 11 18 21.9 122.3 1008 0 9 -- Chart
1967 4 12 00 22.5 122.7 1010 0 2 -- Chart
1967 4 12 06 23.5 123.0 1012 0 2 -- Chart
1967 4 12 12 26.0 124.4 1016 0 6 -- Chart
Japan Meteorological Agency Best Track Data | Correction Date : 1989-06-01
< Typhoon 196703 1967 Season Typhoon 196705 >

Help